New Westminster, Canada
Current Conditions -  °F | °C
As of 8:00 AM on Monday 22 Dec 2014 (Local Time) from CYVR Reporting Station
Broken Clouds Broken Clouds  
Wind Chill: 37°   Ceiling: 24000
Heat Index: 43°   Visibility: 20mi
Dew Point: 41°   Wind: 10mph
Humidity: 93%   Direction: 300°WNW
Pressure: 30.28"   Gusts: 17mph
Location:  49.21°N, 122.91°W
Report Text: CYVR 221600Z 30009G15KT 20SM FEW015 BKN240 06/05 A3028 RMK SF1CI4 PRESRR SLP255
Loading
Personal Weather Stations






























Interactive Weather Map New forecast layout! Learn more

10-Day Weather Forecast

Advertisements
Track Severe Weather on mobile